DAATDAUE

Guest
Details From DAAT - TAMANRASSET
To DAUE - EL GOLEA
Flight Number -
Tags generated
Created
Modified
Stats Distance 487 nm / 902 km
Max Altitude 24,500 ft / 7,468 m
Waypoints 5
Social Downloads 0
Likes 0
Share VATSIM

Download

Looking for another format? Having issues loading an existing format? Contact us
Advertisement - Login to hide

Notes

Basic altitude profile: - Ascent Rate: 2500ft/min - Ascent Speed: 250kts - Cruise Altitude: 35000ft - Cruise Speed: 420kts - Descent Rate: 1500ft/min - Descent Speed: 250kts Options: - Use NATs: yes - Use PACOTS: yes - Use low airways: yes - Use high airways: yes

Route

DAAT TMS A604 MNA DAUE

ID Type Via Altitude Latitude Longitude Leg Dist Tot Dist Heading (true) Name
O DAAT APT - 0 ft / 0 m 22.81038˚ 5.44440˚ - 0 nm - TAMANRASSET
TMS VOR - 800 ft / 244 m 22.84278˚ 5.46472˚ 2 nm 2 nm 30° / 30° TAMANRASSET VOR-DME
SIHAR FIX A604 (AWY-LO) 24,500 ft / 7,468 m 28.50000˚ 3.57472˚ 354 nm 357 nm 344° / 343° -
MNA VOR A604 (AWY-LO) 10,500 ft / 3,200 m 30.55861˚ 2.86167˚ 129 nm 486 nm 343° / 343° EL GOLEA VOR-DME
O DAUE APT - 0 ft / 0 m 30.57729˚ 2.86424˚ 1 nm 487 nm 7° / 7° EL GOLEA

Altitude Profile

Advertisement - Login to hide

Weather


0- 5 10 15 20 25 30 35+ Temperature / ° C

Clouds and Precipitation
Forecast for 2017-12-13 00:00 UTC. Updated an hour ago

Ground ~20,000 ft ~40,000 ft Winds

DAAT

Details ICAO DAAT (TMR)
Name TAMANRASSET
Region Algeria
Timezone Africa/Algiers (UTC+1.0)
Stats Elevation 4,518 ft / 1,377 m (AMSL)
Location 22.810384° 5.444403°
Runways 2
Magnetic Variation 0.600° E

METAR

DAAT 122000Z 15005KT 110V180 CAVOK 11/M11 Q1023

Decode

TAF

TAF DAAT 121700Z 1218/1318 09012KT CAVOK BECMG 1312/1315 17010KT

Decode

Departure Runways

ID Width Length Bearing (true) Bearing (mag) Surface Threshold Offset Overrun Length
02 148 ft / 45 m 11,884 ft / 3,622 m 22.21° 21.61° Asphalt 0 ft / 0 m 0 ft / 0 m
08 148 ft / 45 m 10,169 ft / 3,099 m 81.74° 81.14° Asphalt 0 ft / 0 m 0 ft / 0 m
20 148 ft / 45 m 11,884 ft / 3,622 m 202.22° 201.62° Asphalt 0 ft / 0 m 0 ft / 0 m
26 148 ft / 45 m 10,169 ft / 3,099 m 261.75° 261.15° Asphalt 0 ft / 0 m 0 ft / 0 m

DAUE

Details ICAO DAUE (ELG)
Name EL GOLEA
Region Algeria
Timezone Africa/Algiers (UTC+1.0)
Stats Elevation 1,306 ft / 398 m (AMSL)
Location 30.577292° 2.864236°
Runways 2
Magnetic Variation 0.734° E

METAR

DAUE 122000Z 33004KT CAVOK 11/00 Q1018

Decode

TAF

Not found

Destination Runways

ID Width Length Bearing (true) Bearing (mag) Surface Threshold Offset Overrun Length
10 148 ft / 45 m 5,887 ft / 1,794 m 101.92° 101.19° Asphalt 0 ft / 0 m 0 ft / 0 m
18 148 ft / 45 m 9,833 ft / 2,997 m 179.49° 178.76° Asphalt 0 ft / 0 m 350 ft / 107 m
28 148 ft / 45 m 5,887 ft / 1,794 m 281.93° 281.20° Asphalt 0 ft / 0 m 0 ft / 0 m
36 148 ft / 45 m 9,833 ft / 2,997 m 359.49° 358.76° Asphalt 0 ft / 0 m 0 ft / 0 m

Popular Alternatives